Time;durP1;ratioP1;P1;durP2;ratioP2;P2;SDS_P1;SDS_P2;PMS_P1;PMS_P2;Temp;Humidity;BMP_temperature;BMP_pressure;BME280_temperature;BME280_humidity;BME280_pressure;Samples;Min_cycle;Max_cycle;Signal;HPM_P1;HPM_P2
2021/03/03 00:01:14;;;;;;;36.53;16.37;;;6.10;86.80;;;;;;5039219;28;20263;-70
2021/03/03 00:03:40;;;;;;;38.90;17.17;;;6.10;86.90;;;;;;5033005;28;20197;-71
2021/03/03 00:06:05;;;;;;;32.67;15.87;;;6.20;86.80;;;;;;5043781;28;20427;-71
2021/03/03 00:08:31;;;;;;;38.97;16.07;;;6.10;86.60;;;;;;5044142;28;20434;-70
2021/03/03 00:10:57;;;;;;;36.03;13.97;;;6.10;86.80;;;;;;5037423;28;20195;-70
2021/03/03 00:13:22;;;;;;;34.13;15.87;;;6.20;86.80;;;;;;5037557;28;20264;-71
2021/03/03 00:15:48;;;;;;;33.90;15.10;;;6.10;86.90;;;;;;5044207;28;20725;-72
2021/03/03 00:18:14;;;;;;;36.03;15.80;;;6.10;87.00;;;;;;5049228;28;20234;-70
2021/03/03 00:20:40;;;;;;;33.07;15.23;;;6.10;87.00;;;;;;5019163;28;20439;-69
2021/03/03 00:23:06;;;;;;;35.90;15.80;;;6.10;87.10;;;;;;5030212;28;20255;-71
2021/03/03 00:25:31;;;;;;;35.47;15.60;;;6.10;87.00;;;;;;5037409;28;20191;-71
2021/03/03 00:27:57;;;;;;;35.73;16.23;;;6.10;87.10;;;;;;5037397;28;20200;-72
2021/03/03 00:30:23;;;;;;;33.83;15.10;;;6.10;87.10;;;;;;5029998;28;20259;-71
2021/03/03 00:32:49;;;;;;;35.03;15.33;;;6.10;86.50;;;;;;5042349;28;20825;-70
2021/03/03 00:35:15;;;;;;;29.67;14.30;;;6.00;85.90;;;;;;5050512;28;20433;-71
2021/03/03 00:37:41;;;;;;;34.60;16.00;;;6.00;86.20;;;;;;5050461;28;20467;-72
2021/03/03 00:40:08;;;;;;;36.47;15.13;;;5.90;86.50;;;;;;5026955;28;20733;-69
2021/03/03 00:42:34;;;;;;;35.93;15.97;;;5.90;86.60;;;;;;5022668;28;20452;-71
2021/03/03 00:45:00;;;;;;;41.13;16.20;;;5.80;86.80;;;;;;5048056;28;20438;-71
2021/03/03 00:47:25;;;;;;;35.03;15.23;;;5.80;87.00;;;;;;5039792;28;20189;-70
2021/03/03 00:49:51;;;;;;;30.03;14.70;;;5.70;87.30;;;;;;5042659;28;20458;-70
2021/03/03 00:52:17;;;;;;;32.73;14.40;;;5.70;87.40;;;;;;5029738;28;20209;-70
2021/03/03 00:54:44;;;;;;;38.40;14.43;;;5.70;87.70;;;;;;5043291;28;20668;-71
2021/03/03 00:57:10;;;;;;;38.37;15.70;;;5.60;88.00;;;;;;5030920;28;20212;-71
2021/03/03 00:59:35;;;;;;;31.87;14.83;;;5.60;88.10;;;;;;5036489;28;20437;-71
2021/03/03 01:02:02;;;;;;;36.03;15.13;;;5.60;88.40;;;;;;5037570;28;20474;-70
2021/03/03 01:04:28;;;;;;;37.53;15.97;;;5.60;88.60;;;;;;5035858;28;21075;-70
2021/03/03 01:06:54;;;;;;;31.57;15.73;;;5.60;88.70;;;;;;5050591;28;20185;-70
2021/03/03 01:09:19;;;;;;;35.73;14.70;;;5.60;88.90;;;;;;5045013;28;20190;-71
2021/03/03 01:11:45;;;;;;;34.60;16.43;;;5.60;88.90;;;;;;5043380;28;20239;-70
2021/03/03 01:14:11;;;;;;;35.73;14.33;;;5.60;89.20;;;;;;5038268;28;20477;-71
2021/03/03 01:16:37;;;;;;;32.53;14.80;;;5.60;89.20;;;;;;5051349;28;20234;-70
2021/03/03 01:19:03;;;;;;;35.00;14.87;;;5.70;89.00;;;;;;5050031;28;20192;-70
2021/03/03 01:21:29;;;;;;;40.70;15.70;;;5.70;88.90;;;;;;5050449;28;20486;-71
2021/03/03 01:23:54;;;;;;;30.27;14.43;;;5.70;88.70;;;;;;5049356;28;20470;-70
2021/03/03 01:26:20;;;;;;;35.13;15.07;;;5.70;88.70;;;;;;5053131;28;20192;-70
2021/03/03 01:28:46;;;;;;;31.50;14.90;;;5.70;88.70;;;;;;5053368;28;20192;-69
2021/03/03 01:31:11;;;;;;;37.20;15.53;;;5.70;88.60;;;;;;5051808;28;20217;-70
2021/03/03 01:33:37;;;;;;;37.17;15.47;;;5.70;88.60;;;;;;5050619;28;20466;-72
2021/03/03 01:36:03;;;;;;;27.83;13.70;;;5.70;88.60;;;;;;5051227;28;20192;-72
2021/03/03 01:38:29;;;;;;;36.80;14.97;;;5.70;88.40;;;;;;5046392;28;20205;-70
2021/03/03 01:40:55;;;;;;;35.47;14.90;;;5.70;88.30;;;;;;5017570;28;20424;-71
2021/03/03 01:43:21;;;;;;;35.40;15.33;;;5.80;88.10;;;;;;5032280;28;20562;-71
2021/03/03 01:45:49;;;;;;;30.80;14.90;;;5.70;88.00;;;;;;5035911;28;20432;-69
2021/03/03 01:48:15;;;;;;;36.47;15.83;;;5.70;87.80;;;;;;5042090;28;20580;-71
2021/03/03 01:50:41;;;;;;;30.60;15.20;;;5.70;87.80;;;;;;5038660;28;20521;-70
2021/03/03 01:53:08;;;;;;;35.40;14.93;;;5.70;87.70;;;;;;5041563;28;20459;-70
2021/03/03 01:55:34;;;;;;;33.27;15.47;;;5.70;87.70;;;;;;5041871;28;20457;-70
2021/03/03 01:58:02;;;;;;;37.87;16.30;;;5.70;87.80;;;;;;5036685;28;20470;-71
2021/03/03 02:00:28;;;;;;;33.97;15.10;;;5.70;88.00;;;;;;5037081;28;20428;-70
2021/03/03 02:02:53;;;;;;;29.93;14.33;;;5.70;87.80;;;;;;5043098;28;20446;-70
2021/03/03 02:05:19;;;;;;;32.90;14.33;;;5.80;87.40;;;;;;5041975;28;20196;-69
2021/03/03 02:08:03;;;;;;;31.90;15.20;;;5.70;87.40;;;;;;5016838;28;20220;-70
2021/03/03 02:10:32;;;;;;;31.30;14.40;;;5.70;87.30;;;;;;5042686;28;20481;-69
2021/03/03 02:13:14;;;;;;;32.60;15.03;;;5.70;87.30;;;;;;5038096;28;20462;-70
2021/03/03 02:15:43;;;;;;;28.80;14.10;;;5.70;87.00;;;;;;5047169;28;20496;-69
2021/03/03 02:18:11;;;;;;;30.30;14.40;;;5.70;86.80;;;;;;5048995;28;20573;-70
2021/03/03 02:20:56;;;;;;;35.10;15.57;;;5.70;86.60;;;;;;5035785;28;20419;-71
2021/03/03 02:23:47;;;;;;;36.77;15.20;;;5.70;86.80;;;;;;5034155;28;20436;-69
2021/03/03 02:26:15;;;;;;;33.47;14.53;;;5.80;86.60;;;;;;5036358;28;20486;-70
2021/03/03 02:28:42;;;;;;;35.27;16.80;;;5.80;86.30;;;;;;5048626;28;20956;-71
2021/03/03 02:31:08;;;;;;;29.77;14.10;;;5.80;86.30;;;;;;5034696;28;20799;-71
2021/03/03 02:33:35;;;;;;;34.17;14.20;;;5.70;86.50;;;;;;5041299;28;20436;-71
2021/03/03 02:36:02;;;;;;;34.50;15.37;;;5.70;86.50;;;;;;5043992;28;20438;-70
2021/03/03 02:38:29;;;;;;;40.03;16.00;;;5.70;86.60;;;;;;5031526;28;21356;-72
2021/03/03 02:40:55;;;;;;;34.13;14.50;;;5.70;86.80;;;;;;5020317;28;20428;-71
2021/03/03 02:43:23;;;;;;;35.93;15.30;;;5.70;86.60;;;;;;5044628;28;20487;-69
2021/03/03 02:45:49;;;;;;;31.27;13.70;;;5.70;86.60;;;;;;5048187;28;20485;-70
2021/03/03 02:48:16;;;;;;;26.77;13.80;;;5.70;86.60;;;;;;5034172;28;20466;-69
2021/03/03 02:50:43;;;;;;;39.03;16.13;;;5.70;86.60;;;;;;5034590;28;20432;-70
2021/03/03 02:53:09;;;;;;;30.80;13.80;;;5.70;86.50;;;;;;5026678;28;20459;-71
2021/03/03 02:55:35;;;;;;;37.57;14.90;;;5.70;86.60;;;;;;5028661;28;21001;-69
2021/03/03 02:58:02;;;;;;;35.13;15.13;;;5.70;86.60;;;;;;5034813;28;20467;-71
2021/03/03 03:00:28;;;;;;;41.13;15.63;;;5.70;86.60;;;;;;5034706;28;20443;-70
2021/03/03 03:03:26;;;;;;;32.23;14.97;;;5.60;86.50;;;;;;5041156;28;20444;-70
2021/03/03 03:06:17;;;;;;;36.67;14.20;;;5.50;86.60;;;;;;5003365;28;20292;-70
2021/03/03 03:08:44;;;;;;;29.10;14.40;;;5.60;86.90;;;;;;5043820;28;20795;-72
2021/03/03 03:11:14;;;;;;;36.33;14.73;;;5.60;86.90;;;;;;5044328;28;20438;-71
2021/03/03 03:13:42;;;;;;;37.60;14.20;;;5.60;86.90;;;;;;5032568;28;20424;-70
2021/03/03 03:16:10;;;;;;;36.07;14.40;;;5.60;86.90;;;;;;5039749;28;20442;-71
2021/03/03 03:18:41;;;;;;;35.87;15.40;;;5.60;86.90;;;;;;5049163;28;20512;-69
2021/03/03 03:21:08;;;;;;;28.57;14.47;;;5.50;86.50;;;;;;5033547;28;20781;-70
2021/03/03 03:23:36;;;;;;;39.03;14.90;;;5.60;86.60;;;;;;5033017;28;20518;-70
2021/03/03 03:26:04;;;;;;;30.83;14.63;;;5.60;86.50;;;;;;5043414;28;20954;-71
2021/03/03 03:28:30;;;;;;;32.07;13.77;;;5.60;85.90;;;;;;5053825;28;20553;-69
2021/03/03 03:30:56;;;;;;;33.77;14.83;;;5.60;86.00;;;;;;5056976;28;20930;-69
2021/03/03 03:33:22;;;;;;;27.87;13.77;;;5.60;86.50;;;;;;5052886;28;20493;-71
2021/03/03 03:35:48;;;;;;;27.00;14.73;;;5.60;86.20;;;;;;5024767;28;20417;-70
2021/03/03 03:38:15;;;;;;;31.57;14.80;;;5.60;86.50;;;;;;5019748;28;21060;-70
2021/03/03 03:40:41;;;;;;;35.53;14.87;;;5.60;86.50;;;;;;5036975;28;20443;-70
2021/03/03 03:43:10;;;;;;;29.93;15.27;;;5.60;86.60;;;;;;5049806;28;20452;-70
2021/03/03 03:45:37;;;;;;;39.97;15.53;;;5.60;86.50;;;;;;5034523;28;20416;-70
2021/03/03 03:48:04;;;;;;;35.93;17.10;;;5.50;86.20;;;;;;5053948;28;20480;-71
2021/03/03 03:50:30;;;;;;;32.70;15.17;;;5.50;86.50;;;;;;5045007;28;20820;-70
2021/03/03 03:52:57;;;;;;;30.67;14.60;;;5.50;86.80;;;;;;5037937;28;20453;-71
2021/03/03 03:55:34;;;;;;;35.23;14.30;;;5.50;86.80;;;;;;5042410;28;20436;-71
2021/03/03 03:58:01;;;;;;;30.90;13.40;;;5.50;86.60;;;;;;5046891;28;20773;-70
2021/03/03 04:00:28;;;;;;;34.03;14.90;;;5.50;86.80;;;;;;5033967;28;20424;-70
2021/03/03 04:02:53;;;;;;;32.60;14.23;;;5.50;86.60;;;;;;5047738;28;20448;-71
2021/03/03 04:05:20;;;;;;;32.73;14.37;;;5.40;86.80;;;;;;5036586;28;20431;-70
2021/03/03 04:07:46;;;;;;;27.80;14.03;;;5.40;87.00;;;;;;5058100;28;20189;-70
2021/03/03 04:10:15;;;;;;;33.50;13.83;;;5.40;87.10;;;;;;5055365;28;20438;-70
2021/03/03 04:12:42;;;;;;;32.73;15.13;;;5.50;87.30;;;;;;5055727;28;20471;-70
2021/03/03 04:15:08;;;;;;;33.27;16.00;;;5.50;87.10;;;;;;5040327;28;20837;-71
2021/03/03 04:17:36;;;;;;;36.43;15.80;;;5.50;86.90;;;;;;5054880;28;21023;-70
2021/03/03 04:20:04;;;;;;;32.53;15.33;;;5.40;87.00;;;;;;5038749;28;20433;-70
2021/03/03 04:22:30;;;;;;;33.73;14.60;;;5.40;87.10;;;;;;5045472;28;20540;-71
2021/03/03 04:24:56;;;;;;;34.70;14.20;;;5.40;87.40;;;;;;5050131;28;20490;-71
2021/03/03 04:27:22;;;;;;;29.43;15.20;;;5.40;87.10;;;;;;5048363;28;20189;-72
2021/03/03 04:29:47;;;;;;;38.83;15.60;;;5.40;87.00;;;;;;5051805;28;20675;-71
2021/03/03 04:32:13;;;;;;;30.43;14.63;;;5.40;87.00;;;;;;5049780;28;20209;-71
2021/03/03 04:34:39;;;;;;;31.10;13.90;;;5.40;87.30;;;;;;5038881;28;20558;-71
2021/03/03 04:37:05;;;;;;;31.07;14.00;;;5.40;87.00;;;;;;5054353;28;20262;-70
2021/03/03 04:39:31;;;;;;;29.53;14.50;;;5.40;87.00;;;;;;5050171;28;20290;-72
2021/03/03 04:41:57;;;;;;;31.40;15.83;;;5.40;86.90;;;;;;5033977;28;20558;-71
2021/03/03 04:44:22;;;;;;;38.70;15.87;;;5.40;86.80;;;;;;5047629;28;20310;-71
2021/03/03 04:46:48;;;;;;;33.93;16.17;;;5.40;86.50;;;;;;5034306;28;20181;-71
2021/03/03 04:49:14;;;;;;;36.30;14.83;;;5.50;86.50;;;;;;5023368;28;20275;-69
2021/03/03 04:51:39;;;;;;;38.70;15.30;;;5.50;86.50;;;;;;5039798;28;20205;-68
2021/03/03 04:54:05;;;;;;;32.53;14.67;;;5.50;86.30;;;;;;5032860;28;20561;-70
2021/03/03 04:56:31;;;;;;;35.20;15.70;;;5.50;86.20;;;;;;5031292;28;20205;-69
2021/03/03 04:58:57;;;;;;;40.83;16.80;;;5.50;86.30;;;;;;5032485;28;21080;-70
2021/03/03 05:01:22;;;;;;;31.83;15.00;;;5.50;86.50;;;;;;5041166;28;20211;-71
2021/03/03 05:03:48;;;;;;;34.23;14.70;;;5.50;86.50;;;;;;5053320;28;20551;-70
2021/03/03 05:06:14;;;;;;;27.43;14.83;;;5.50;86.60;;;;;;5040625;28;20195;-71
2021/03/03 05:08:40;;;;;;;35.67;15.27;;;5.50;86.80;;;;;;5040553;28;20841;-72
2021/03/03 05:11:06;;;;;;;36.27;15.60;;;5.50;86.60;;;;;;5044996;28;20193;-71
2021/03/03 05:13:32;;;;;;;35.73;16.10;;;5.60;86.60;;;;;;5046206;28;20207;-70
2021/03/03 05:15:58;;;;;;;31.60;15.97;;;5.60;86.20;;;;;;5043157;28;20435;-71
2021/03/03 05:18:24;;;;;;;36.77;16.33;;;5.60;86.20;;;;;;5043007;28;20220;-70
2021/03/03 05:20:50;;;;;;;32.20;16.10;;;5.60;86.20;;;;;;5045639;28;20416;-70
2021/03/03 05:23:45;;;;;;;38.30;16.23;;;5.60;86.20;;;;;;5045045;28;20427;-71
2021/03/03 05:26:13;;;;;;;36.90;15.60;;;5.60;86.20;;;;;;5021406;28;20447;-71
2021/03/03 05:28:39;;;;;;;36.60;16.77;;;5.50;86.30;;;;;;5021318;28;20436;-70
2021/03/03 05:31:05;;;;;;;38.77;17.00;;;5.50;86.50;;;;;;5019595;28;20451;-70
2021/03/03 05:33:33;;;;;;;35.70;15.97;;;5.50;86.30;;;;;;5013853;28;20919;-69
2021/03/03 05:36:02;;;;;;;35.00;16.20;;;5.50;86.60;;;;;;5026979;28;20987;-70
2021/03/03 05:38:27;;;;;;;30.17;15.10;;;5.50;86.60;;;;;;5010937;28;20582;-68
2021/03/03 05:40:55;;;;;;;29.57;14.00;;;5.50;87.00;;;;;;4998247;28;21201;-68
2021/03/03 05:43:22;;;;;;;33.17;15.00;;;5.60;87.00;;;;;;5012090;28;20201;-70
2021/03/03 05:45:49;;;;;;;35.77;16.70;;;5.60;86.90;;;;;;5010022;28;20420;-69
2021/03/03 05:48:41;;;;;;;36.87;15.37;;;5.50;86.90;;;;;;5013655;28;20463;-70
2021/03/03 05:51:07;;;;;;;44.27;18.50;;;5.50;86.90;;;;;;4972872;28;20970;-70
2021/03/03 05:53:35;;;;;;;42.93;17.47;;;5.40;86.90;;;;;;5019242;28;20586;-70
2021/03/03 05:56:07;;;;;;;31.83;16.47;;;5.50;86.90;;;;;;4999672;28;20490;-71
2021/03/03 05:58:35;;;;;;;37.97;17.63;;;5.50;86.90;;;;;;5002886;28;20469;-70
2021/03/03 06:01:06;;;;;;;41.23;16.90;;;5.50;86.90;;;;;;5020869;28;20484;-71
2021/03/03 06:03:32;;;;;;;37.93;17.67;;;5.60;87.00;;;;;;5020835;28;20515;-70
2021/03/03 06:05:58;;;;;;;45.63;16.63;;;5.50;87.00;;;;;;5042375;28;20507;-70
2021/03/03 06:08:29;;;;;;;40.03;17.77;;;5.60;87.00;;;;;;5041359;28;21029;-68
2021/03/03 06:10:55;;;;;;;32.50;15.70;;;5.60;86.60;;;;;;5049096;28;20413;-70
2021/03/03 06:13:21;;;;;;;35.53;16.90;;;5.60;86.50;;;;;;5036494;28;20513;-69
2021/03/03 06:15:48;;;;;;;35.53;16.50;;;5.60;85.60;;;;;;5049185;28;20419;-70
2021/03/03 06:18:16;;;;;;;38.33;16.33;;;5.60;85.50;;;;;;5047951;28;20475;-70
2021/03/03 06:20:43;;;;;;;49.50;17.90;;;5.60;84.90;;;;;;5048694;28;20426;-72
2021/03/03 06:23:25;;;;;;;35.00;16.40;;;5.50;84.70;;;;;;5035954;28;20451;-69
2021/03/03 06:26:02;;;;;;;34.77;16.00;;;5.60;84.90;;;;;;5037437;28;20429;-67
2021/03/03 06:28:45;;;;;;;38.03;16.57;;;5.60;84.40;;;;;;5048996;28;20976;-70
2021/03/03 06:31:33;;;;;;;32.30;15.07;;;5.60;84.40;;;;;;5048816;28;20838;-70
2021/03/03 06:34:16;;;;;;;34.70;15.77;;;5.60;84.40;;;;;;5017653;28;20505;-69
2021/03/03 06:36:46;;;;;;;37.80;18.90;;;5.60;84.60;;;;;;5047646;28;20419;-71
2021/03/03 06:39:37;;;;;;;36.00;18.47;;;5.60;84.70;;;;;;5036497;28;20463;-70
2021/03/03 06:42:11;;;;;;;30.57;17.47;;;5.70;84.60;;;;;;5017075;28;20438;-70
2021/03/03 06:44:56;;;;;;;43.03;15.90;;;5.80;84.40;;;;;;5049722;28;20945;-70
2021/03/03 06:47:23;;;;;;;34.97;16.57;;;5.90;84.00;;;;;;5052958;28;20761;-70
2021/03/03 06:49:50;;;;;;;34.33;16.20;;;5.90;84.00;;;;;;5048134;28;20469;-69
2021/03/03 06:52:17;;;;;;;40.00;17.80;;;6.00;84.10;;;;;;5027661;28;20523;-71
2021/03/03 06:54:43;;;;;;;41.90;18.17;;;6.00;83.80;;;;;;5045285;28;20447;-70
2021/03/03 06:57:13;;;;;;;34.20;17.47;;;6.10;84.00;;;;;;5044712;28;20458;-73
2021/03/03 06:59:43;;;;;;;34.93;16.70;;;6.20;83.60;;;;;;5047049;28;20857;-72
2021/03/03 07:02:09;;;;;;;37.00;16.83;;;6.30;83.60;;;;;;5044656;28;20435;-73
2021/03/03 07:04:42;;;;;;;37.40;16.77;;;6.40;82.80;;;;;;5038955;28;20812;-73
2021/03/03 07:07:16;;;;;;;34.47;16.20;;;6.50;82.40;;;;;;5028645;28;20424;-73
2021/03/03 07:09:47;;;;;;;34.07;16.23;;;6.50;81.90;;;;;;5040364;28;20441;-74
2021/03/03 07:12:18;;;;;;;37.23;17.40;;;6.50;81.70;;;;;;5054325;28;20466;-74
2021/03/03 07:14:54;;;;;;;45.20;18.50;;;6.50;81.70;;;;;;5057213;28;20437;-73
2021/03/03 07:17:21;;;;;;;43.77;17.30;;;6.50;81.10;;;;;;5053502;28;20867;-74
2021/03/03 07:19:49;;;;;;;37.73;17.20;;;6.60;81.10;;;;;;5036595;28;20428;-72
2021/03/03 07:22:31;;;;;;;33.70;15.60;;;6.60;80.80;;;;;;5036521;28;20456;-73
2021/03/03 07:25:02;;;;;;;40.83;18.67;;;6.60;80.90;;;;;;5051344;28;20418;-73
2021/03/03 07:27:29;;;;;;;35.23;16.30;;;6.50;80.60;;;;;;5038137;28;20522;-71
2021/03/03 07:29:57;;;;;;;46.27;17.13;;;6.50;80.50;;;;;;5048073;28;20782;-73
2021/03/03 07:32:23;;;;;;;31.73;16.20;;;6.50;80.50;;;;;;5033687;28;20446;-73
2021/03/03 07:34:54;;;;;;;32.83;16.07;;;6.60;80.60;;;;;;5035385;28;20431;-71
2021/03/03 07:37:22;;;;;;;37.00;17.07;;;6.70;80.50;;;;;;5044534;28;20999;-70
2021/03/03 07:39:53;;;;;;;30.27;15.70;;;6.80;80.50;;;;;;5051977;28;20546;-71
2021/03/03 07:42:23;;;;;;;38.53;16.80;;;6.90;80.00;;;;;;5036106;28;20439;-72
2021/03/03 07:44:50;;;;;;;38.87;16.93;;;7.00;79.50;;;;;;5045536;28;20446;-72
2021/03/03 07:47:17;;;;;;;46.47;20.70;;;7.10;78.70;;;;;;5032803;28;20451;-72
2021/03/03 07:49:47;;;;;;;40.93;18.33;;;7.10;78.30;;;;;;5050210;28;20442;-71
2021/03/03 07:52:14;;;;;;;35.23;16.93;;;7.20;79.30;;;;;;5032828;28;20966;-71
2021/03/03 07:54:40;;;;;;;40.67;17.60;;;7.30;79.60;;;;;;5049430;28;20434;-70
2021/03/03 07:57:09;;;;;;;44.93;19.27;;;7.40;78.30;;;;;;5038708;28;20504;-71
2021/03/03 07:59:35;;;;;;;40.97;17.57;;;7.50;77.70;;;;;;5038207;28;20411;-70
2021/03/03 08:02:00;;;;;;;36.97;18.40;;;7.60;77.70;;;;;;5052939;28;20500;-72
2021/03/03 08:04:37;;;;;;;39.00;17.30;;;7.70;77.30;;;;;;5045830;28;20184;-70
2021/03/03 08:07:20;;;;;;;48.40;17.97;;;7.80;76.20;;;;;;5044194;28;20275;-72
2021/03/03 08:10:13;;;;;;;45.33;17.73;;;7.90;76.10;;;;;;5041676;28;20950;-71
2021/03/03 08:12:59;;;;;;;41.93;18.00;;;7.90;75.50;;;;;;5020489;28;20444;-70
2021/03/03 08:15:35;;;;;;;33.63;17.80;;;8.00;74.90;;;;;;5044831;28;20408;-70
2021/03/03 08:18:21;;;;;;;40.27;19.37;;;7.90;75.10;;;;;;5043364;28;20834;-70
2021/03/03 08:20:55;;;;;;;48.13;18.40;;;7.80;74.90;;;;;;5019270;28;20412;-70
2021/03/03 08:23:33;;;;;;;41.93;18.53;;;7.70;75.50;;;;;;5034284;28;20546;-70
2021/03/03 08:26:12;;;;;;;44.77;20.20;;;7.70;75.90;;;;;;5051003;28;20422;-70
2021/03/03 08:28:40;;;;;;;46.97;19.43;;;7.70;76.20;;;;;;5037178;28;20457;-70
2021/03/03 08:31:09;;;;;;;45.07;19.33;;;7.70;76.10;;;;;;5039779;28;20419;-73
2021/03/03 08:33:36;;;;;;;33.83;16.03;;;7.70;75.90;;;;;;5052905;28;20421;-69
2021/03/03 08:36:02;;;;;;;40.83;17.60;;;7.70;75.90;;;;;;5039847;28;21045;-72
2021/03/03 08:38:28;;;;;;;47.10;19.90;;;7.80;75.80;;;;;;5045931;28;20534;-71
2021/03/03 08:41:13;;;;;;;35.97;17.40;;;7.90;75.50;;;;;;5021061;28;20429;-71
2021/03/03 08:43:40;;;;;;;45.00;19.17;;;8.00;74.90;;;;;;5038156;28;20188;-70
2021/03/03 08:46:21;;;;;;;43.27;17.93;;;8.10;74.50;;;;;;5037702;28;20439;-70
2021/03/03 08:48:53;;;;;;;48.40;19.43;;;8.10;74.50;;;;;;5040337;28;20436;-71
2021/03/03 08:51:34;;;;;;;40.93;18.80;;;8.20;74.00;;;;;;5037052;28;20451;-71
2021/03/03 08:54:01;;;;;;;48.10;19.57;;;8.30;74.00;;;;;;5043916;28;20439;-71
2021/03/03 08:56:40;;;;;;;39.73;18.93;;;8.40;73.50;;;;;;5037045;28;20430;-71
2021/03/03 08:59:13;;;;;;;44.00;19.00;;;8.40;73.20;;;;;;5037632;28;20973;-72
2021/03/03 09:02:03;;;;;;;49.07;19.70;;;8.60;72.90;;;;;;5042169;28;20923;-70
2021/03/03 09:04:41;;;;;;;44.57;18.43;;;8.60;72.60;;;;;;5044652;28;20420;-72
2021/03/03 09:07:13;;;;;;;54.83;19.60;;;8.50;72.70;;;;;;5043989;28;20414;-72
2021/03/03 09:09:45;;;;;;;44.00;19.80;;;8.50;72.90;;;;;;5039478;28;20423;-70
2021/03/03 09:12:14;;;;;;;36.67;20.37;;;8.50;72.70;;;;;;5037307;28;20444;-71
2021/03/03 09:14:41;;;;;;;41.73;18.90;;;8.40;72.70;;;;;;5040790;28;20451;-71
2021/03/03 09:17:08;;;;;;;41.53;18.67;;;8.40;73.00;;;;;;5043117;28;21028;-71
2021/03/03 09:19:35;;;;;;;38.50;18.60;;;8.50;73.30;;;;;;5040432;28;20796;-72
2021/03/03 09:22:32;;;;;;;49.63;20.13;;;8.60;73.20;;;;;;5035515;28;20443;-70
2021/03/03 09:25:06;;;;;;;45.60;19.63;;;8.80;72.10;;;;;;5040203;28;20474;-71
2021/03/03 09:27:32;;;;;;;37.93;19.10;;;8.70;71.80;;;;;;5039321;28;20420;-72
2021/03/03 09:29:58;;;;;;;36.90;19.80;;;8.70;72.30;;;;;;5036007;28;20432;-70
2021/03/03 09:32:24;;;;;;;43.10;18.60;;;8.80;72.40;;;;;;5039828;28;20211;-69
2021/03/03 09:35:02;;;;;;;39.53;18.27;;;8.90;71.80;;;;;;5042779;28;20419;-70
2021/03/03 09:37:41;;;;;;;38.37;18.53;;;9.00;71.70;;;;;;5039430;28;20497;-71
2021/03/03 09:40:10;;;;;;;44.53;19.87;;;9.20;71.40;;;;;;5024526;28;20425;-72
2021/03/03 09:42:41;;;;;;;35.33;19.10;;;9.20;70.70;;;;;;5025570;28;20456;-71
2021/03/03 09:45:17;;;;;;;43.80;18.80;;;9.30;70.50;;;;;;5029028;28;20416;-71
2021/03/03 09:47:43;;;;;;;45.50;19.77;;;9.50;69.90;;;;;;5029911;28;20431;-70
2021/03/03 09:50:17;;;;;;;38.80;18.40;;;9.60;69.40;;;;;;5027523;28;20455;-70
2021/03/03 09:52:46;;;;;;;43.20;19.80;;;9.60;69.10;;;;;;5026845;28;20448;-70
2021/03/03 09:55:13;;;;;;;50.57;20.30;;;9.70;68.60;;;;;;5029195;28;20423;-70
2021/03/03 09:57:40;;;;;;;37.63;20.70;;;9.70;68.30;;;;;;5028445;28;20544;-70
2021/03/03 10:00:11;;;;;;;34.20;18.80;;;9.80;67.90;;;;;;5027843;28;20424;-71
2021/03/03 10:02:58;;;;;;;38.83;20.53;;;9.90;67.90;;;;;;5029664;28;20444;-71
2021/03/03 10:05:29;;;;;;;42.40;20.93;;;9.90;67.70;;;;;;5028486;28;20922;-71
2021/03/03 10:08:06;;;;;;;35.87;19.77;;;9.90;67.70;;;;;;5017543;28;20483;-72
2021/03/03 10:10:34;;;;;;;51.53;21.20;;;9.90;68.00;;;;;;5028839;28;20510;-72
2021/03/03 10:13:00;;;;;;;45.60;18.90;;;10.00;67.70;;;;;;5037792;28;20520;-72
2021/03/03 10:15:33;;;;;;;36.07;20.13;;;10.00;67.50;;;;;;5047462;28;21114;-71
2021/03/03 10:18:01;;;;;;;41.73;20.23;;;10.10;67.50;;;;;;5047676;28;20470;-72
2021/03/03 10:20:49;;;;;;;47.67;22.33;;;10.10;67.30;;;;;;5047306;28;20429;-73
2021/03/03 10:23:17;;;;;;;56.40;19.90;;;10.10;67.50;;;;;;5035139;28;20444;-71
2021/03/03 10:25:45;;;;;;;43.20;19.87;;;10.20;67.50;;;;;;5035955;28;20423;-73
2021/03/03 10:28:13;;;;;;;41.27;19.40;;;10.30;67.00;;;;;;5049506;28;20422;-71
2021/03/03 10:30:44;;;;;;;43.20;20.60;;;10.40;66.40;;;;;;5047792;28;20463;-71
2021/03/03 10:33:23;;;;;;;39.97;20.73;;;10.40;66.40;;;;;;5049485;28;21342;-71
2021/03/03 10:35:51;;;;;;;43.00;20.63;;;10.50;66.10;;;;;;5038880;28;20419;-72
2021/03/03 10:38:19;;;;;;;47.97;21.80;;;10.40;65.80;;;;;;5034461;28;20462;-70
2021/03/03 10:40:47;;;;;;;39.70;19.97;;;10.30;66.10;;;;;;5026386;28;20475;-72
2021/03/03 10:43:21;;;;;;;39.80;19.83;;;10.20;66.70;;;;;;5026954;28;20440;-72
2021/03/03 10:45:49;;;;;;;42.20;20.70;;;10.20;66.90;;;;;;5039766;28;20495;-72
2021/03/03 10:48:28;;;;;;;41.80;20.93;;;10.30;66.70;;;;;;5035741;28;20440;-70
2021/03/03 10:50:55;;;;;;;45.17;20.97;;;10.30;66.70;;;;;;5032722;28;20498;-70
2021/03/03 10:53:21;;;;;;;39.33;19.80;;;10.30;66.40;;;;;;5049982;28;20423;-70
2021/03/03 10:55:47;;;;;;;38.83;20.23;;;10.60;66.60;;;;;;5048453;28;20434;-71
2021/03/03 10:58:18;;;;;;;43.37;21.37;;;10.90;65.00;;;;;;5044152;28;20464;-72
2021/03/03 11:01:02;;;;;;;44.20;20.97;;;10.90;64.40;;;;;;5043359;28;20173;-72
2021/03/03 11:03:29;;;;;;;43.53;20.33;;;10.90;64.50;;;;;;5041615;28;20427;-72
2021/03/03 11:05:59;;;;;;;44.20;21.03;;;10.90;65.00;;;;;;5038504;28;20445;-72
2021/03/03 11:08:27;;;;;;;40.27;20.80;;;10.80;65.40;;;;;;5052945;28;20466;-71
2021/03/03 11:11:05;;;;;;;44.93;20.37;;;10.90;65.10;;;;;;5039198;28;20918;-72
2021/03/03 11:13:35;;;;;;;41.57;20.80;;;11.00;64.80;;;;;;5035953;28;20419;-73
2021/03/03 11:16:02;;;;;;;39.33;19.47;;;11.20;64.20;;;;;;5039579;28;20435;-74
2021/03/03 11:18:28;;;;;;;48.00;22.30;;;11.30;63.40;;;;;;5028837;28;20510;-74
2021/03/03 11:20:54;;;;;;;39.50;20.33;;;11.30;63.40;;;;;;5034527;28;20935;-75
2021/03/03 11:23:20;;;;;;;41.37;20.30;;;11.30;63.50;;;;;;5038364;28;20431;-74
2021/03/03 11:25:45;;;;;;;42.83;21.50;;;11.30;63.70;;;;;;5027112;28;20434;-72
2021/03/03 11:28:11;;;;;;;47.73;21.03;;;11.20;63.40;;;;;;5041622;28;20180;-72
2021/03/03 11:30:37;;;;;;;40.77;21.17;;;11.30;63.50;;;;;;5038490;28;20651;-69
2021/03/03 11:33:03;;;;;;;39.90;21.20;;;11.30;63.50;;;;;;5051465;28;21283;-76
2021/03/03 11:35:29;;;;;;;42.00;20.50;;;11.50;62.80;;;;;;5038947;28;21010;-73
2021/03/03 11:37:55;;;;;;;44.73;20.67;;;11.50;62.90;;;;;;5035045;28;20217;-73
2021/03/03 11:40:20;;;;;;;42.80;20.43;;;11.60;62.30;;;;;;5041353;28;20609;-73
2021/03/03 11:42:46;;;;;;;44.57;21.43;;;11.60;62.20;;;;;;5046453;28;20223;-73
2021/03/03 11:45:13;;;;;;;49.50;21.37;;;11.80;62.00;;;;;;5054067;28;20422;-74
2021/03/03 11:47:38;;;;;;;37.80;20.40;;;11.90;61.70;;;;;;5047692;28;20192;-73
2021/03/03 11:50:06;;;;;;;42.33;21.90;;;12.00;61.20;;;;;;5032942;28;20479;-74
2021/03/03 11:52:32;;;;;;;47.87;21.50;;;12.10;61.30;;;;;;5044946;28;20208;-74
2021/03/03 11:54:58;;;;;;;35.50;20.10;;;12.20;60.70;;;;;;5052457;28;20518;-73
2021/03/03 11:57:24;;;;;;;47.33;23.10;;;12.20;60.40;;;;;;5051678;28;20484;-75
2021/03/03 11:59:53;;;;;;;44.13;21.90;;;12.20;60.40;;;;;;5050591;28;20210;-75
2021/03/03 12:02:18;;;;;;;47.73;21.60;;;12.30;60.00;;;;;;5050469;28;20443;-74
2021/03/03 12:04:44;;;;;;;41.03;21.43;;;12.30;60.10;;;;;;5050216;28;20437;-73
2021/03/03 12:07:10;;;;;;;43.53;21.47;;;12.30;60.30;;;;;;5036112;28;20181;-75
2021/03/03 12:09:36;;;;;;;39.77;21.50;;;12.30;60.00;;;;;;5030945;28;20181;-74
2021/03/03 12:12:02;;;;;;;50.43;21.37;;;12.30;59.70;;;;;;5039979;28;20197;-74
2021/03/03 12:14:29;;;;;;;38.40;20.50;;;12.20;60.30;;;;;;5030994;28;20426;-73
2021/03/03 12:16:54;;;;;;;43.17;21.70;;;12.30;59.70;;;;;;5036336;28;20435;-73
2021/03/03 12:19:20;;;;;;;38.53;21.30;;;12.40;59.70;;;;;;5028940;28;20471;-73
2021/03/03 12:21:46;;;;;;;37.30;20.90;;;12.40;59.50;;;;;;5032395;28;20300;-72
2021/03/03 12:24:12;;;;;;;40.40;21.77;;;12.40;59.70;;;;;;5033688;28;20209;-74
2021/03/03 12:26:38;;;;;;;44.27;21.57;;;12.50;59.30;;;;;;5051587;28;20256;-73
2021/03/03 12:29:04;;;;;;;40.37;22.73;;;12.70;58.80;;;;;;5030482;28;20935;-71
2021/03/03 12:31:30;;;;;;;37.83;21.17;;;12.80;58.10;;;;;;5045307;28;20471;-72
2021/03/03 12:33:56;;;;;;;41.73;21.50;;;12.90;58.20;;;;;;5050476;28;20540;-72
2021/03/03 12:36:22;;;;;;;36.90;21.10;;;12.90;58.00;;;;;;5041397;28;20519;-73
2021/03/03 12:38:48;;;;;;;46.57;22.77;;;12.90;58.00;;;;;;5034117;28;20212;-72
2021/03/03 12:41:14;;;;;;;42.43;21.07;;;13.00;58.10;;;;;;5035987;28;20205;-71
2021/03/03 12:43:39;;;;;;;42.33;21.73;;;13.00;57.70;;;;;;5038135;28;20199;-72
2021/03/03 12:46:05;;;;;;;36.90;20.10;;;13.10;57.80;;;;;;5036315;28;20213;-72